Time;durP1;ratioP1;P1;durP2;ratioP2;P2;SDS_P1;SDS_P2;PMS_P1;PMS_P2;Temp;Humidity;BMP_temperature;BMP_pressure;BME280_temperature;BME280_humidity;BME280_pressure;Samples;Min_cycle;Max_cycle;Signal;HPM_P1;HPM_P2
2020/12/16 00:01:07;;;;;;;20.25;11.48;;;;;;;5.36;95.08;101479.34;5100728;28;20130;-50
2020/12/16 00:03:35;;;;;;;22.30;13.07;;;;;;;5.34;95.27;101479.59;5091626;28;20048;-48
2020/12/16 00:06:03;;;;;;;23.83;13.32;;;;;;;5.33;95.12;101477.06;5090959;28;20115;-47
2020/12/16 00:08:30;;;;;;;28.83;14.30;;;;;;;5.31;95.12;101473.72;5091482;28;20052;-51
2020/12/16 00:10:57;;;;;;;20.40;13.38;;;;;;;5.29;94.80;101473.97;5090495;28;20040;-52
2020/12/16 00:13:24;;;;;;;20.30;12.88;;;;;;;5.27;94.95;101475.28;5091174;28;20040;-50
2020/12/16 00:15:51;;;;;;;24.90;13.68;;;;;;;5.25;95.05;101481.06;5091004;28;20047;-50
2020/12/16 00:18:20;;;;;;;23.63;14.07;;;;;;;5.22;95.04;101486.25;5090539;28;20058;-47
2020/12/16 00:20:48;;;;;;;25.17;14.32;;;;;;;5.18;94.87;101472.97;5091334;28;20048;-54
2020/12/16 00:23:15;;;;;;;27.20;14.38;;;;;;;5.16;95.07;101477.91;5091078;28;20467;-52
2020/12/16 00:25:42;;;;;;;24.15;13.07;;;;;;;5.13;95.02;101472.84;5091437;28;20072;-50
2020/12/16 00:28:09;;;;;;;22.52;13.43;;;;;;;5.07;95.11;101468.31;5107556;28;20481;-50
2020/12/16 00:30:36;;;;;;;28.15;15.18;;;;;;;4.99;95.19;101477.03;5111240;28;20081;-48
2020/12/16 00:33:03;;;;;;;22.88;13.80;;;;;;;4.96;94.97;101483.03;5110316;28;20047;-50
2020/12/16 00:35:29;;;;;;;24.35;13.25;;;;;;;4.94;94.85;101478.84;5111319;28;20051;-48
2020/12/16 00:37:58;;;;;;;22.00;13.95;;;;;;;4.92;95.07;101483.78;5110830;28;20536;-51
2020/12/16 00:40:25;;;;;;;37.65;15.88;;;;;;;4.88;95.09;101496.41;5110862;28;20120;-49
2020/12/16 00:42:52;;;;;;;43.53;15.38;;;;;;;4.82;95.28;101487.16;5110470;28;20387;-50
2020/12/16 00:45:20;;;;;;;45.25;14.60;;;;;;;4.78;95.15;101489.59;5111196;28;20044;-52
2020/12/16 00:47:47;;;;;;;104.30;16.35;;;;;;;4.71;95.54;101486.13;5110315;28;20135;-48
2020/12/16 00:50:18;;;;;;;48.72;11.60;;;;;;;4.65;95.45;101489.00;5111350;28;20040;-52
2020/12/16 00:53:00;;;;;;;66.07;14.07;;;;;;;4.59;95.12;101495.53;5095611;28;20037;-49
2020/12/16 00:55:32;;;;;;;37.05;12.32;;;;;;;4.56;95.22;101496.03;5092227;28;20139;-51
2020/12/16 00:57:58;;;;;;;28.95;10.55;;;;;;;4.52;95.40;101495.66;5093488;28;20048;-52
2020/12/16 01:00:27;;;;;;;46.90;12.68;;;;;;;4.50;95.31;101504.19;5109759;28;20044;-51
2020/12/16 01:02:59;;;;;;;55.08;12.60;;;;;;;4.48;95.21;101505.53;5103269;28;20039;-51
2020/12/16 01:05:29;;;;;;;45.50;12.30;;;;;;;4.43;95.36;101506.25;5093701;28;20574;-48
2020/12/16 01:07:56;;;;;;;65.00;13.57;;;;;;;4.42;95.49;101509.25;5095355;28;20051;-50
2020/12/16 01:10:24;;;;;;;39.38;12.70;;;;;;;4.40;95.37;101511.41;5115297;28;20450;-51
2020/12/16 01:12:52;;;;;;;75.38;14.40;;;;;;;4.35;95.55;101503.88;5114505;28;20055;-48
2020/12/16 01:15:23;;;;;;;73.00;13.55;;;;;;;4.31;95.58;101510.97;5114532;27;20043;-48
2020/12/16 01:17:57;;;;;;;118.63;16.52;;;;;;;4.27;95.15;101507.00;5107586;28;20089;-49
2020/12/16 01:20:33;;;;;;;135.38;17.33;;;;;;;4.24;95.76;101510.22;5104830;28;20421;-50
2020/12/16 01:23:14;;;;;;;190.88;19.05;;;;;;;4.22;95.84;101512.41;5106818;28;20048;-52
2020/12/16 01:25:42;;;;;;;95.15;14.93;;;;;;;4.22;95.69;101509.63;5103407;28;20056;-53
2020/12/16 01:28:09;;;;;;;91.60;15.60;;;;;;;4.21;95.86;101516.25;5098046;28;20134;-48
2020/12/16 01:30:47;;;;;;;140.35;16.85;;;;;;;4.21;95.88;101510.72;5114666;28;20412;-49
2020/12/16 01:33:15;;;;;;;96.95;16.50;;;;;;;4.22;95.81;101512.41;5112334;28;20470;-51
2020/12/16 01:35:45;;;;;;;129.45;18.80;;;;;;;4.22;96.13;101517.91;5093559;28;20040;-52
2020/12/16 01:38:12;;;;;;;125.65;18.25;;;;;;;4.26;95.98;101521.03;5094845;28;20062;-50
2020/12/16 01:40:45;;;;;;;85.85;16.40;;;;;;;4.27;96.28;101520.81;5095544;28;20048;-50
2020/12/16 01:43:12;;;;;;;96.65;17.20;;;;;;;4.32;96.33;101522.84;5092731;28;20052;-51
2020/12/16 01:45:39;;;;;;;156.00;22.20;;;;;;;4.38;96.29;101527.41;5098801;28;20063;-51
2020/12/16 01:48:06;;;;;;;177.77;22.65;;;;;;;4.43;96.50;101527.50;5113205;28;20039;-48
2020/12/16 01:50:34;;;;;;;106.95;19.73;;;;;;;4.47;96.36;101523.19;5095042;28;20506;-50
2020/12/16 01:53:06;;;;;;;127.10;22.60;;;;;;;4.50;96.53;101526.31;5113240;28;20112;-54
2020/12/16 01:55:44;;;;;;;127.05;23.95;;;;;;;4.53;96.43;101529.69;5094829;28;20067;-52
2020/12/16 01:58:23;;;;;;;89.72;20.25;;;;;;;4.56;96.36;101518.97;5112777;28;20154;-47
2020/12/16 02:00:54;;;;;;;129.25;24.35;;;;;;;4.58;96.58;101511.28;5094817;28;20161;-54
2020/12/16 02:03:23;;;;;;;124.32;23.65;;;;;;;4.64;96.59;101515.81;5112254;28;20047;-52
2020/12/16 02:06:07;;;;;;;153.07;24.88;;;;;;;4.69;96.58;101512.34;5093718;28;20040;-50
2020/12/16 02:08:38;;;;;;;172.18;25.95;;;;;;;4.69;96.63;101518.69;5113009;28;20571;-52
2020/12/16 02:11:09;;;;;;;170.83;25.57;;;;;;;4.72;96.65;101517.38;5094456;28;20449;-47
2020/12/16 02:13:42;;;;;;;109.07;23.25;;;;;;;4.73;96.73;101517.13;5112658;28;20048;-53
2020/12/16 02:16:09;;;;;;;130.45;22.88;;;;;;;4.76;96.53;101518.56;5095026;28;20040;-54
2020/12/16 02:18:36;;;;;;;162.63;26.90;;;;;;;4.78;96.62;101510.88;5112995;28;20056;-50
2020/12/16 02:21:10;;;;;;;129.77;25.55;;;;;;;4.78;96.80;101521.94;5096463;28;20486;-52
2020/12/16 02:23:47;;;;;;;148.07;24.67;;;;;;;4.75;96.73;101516.88;5092133;28;20040;-49
2020/12/16 02:26:16;;;;;;;146.90;26.20;;;;;;;4.77;97.11;101510.03;5091019;28;20414;-54
2020/12/16 02:28:51;;;;;;;71.43;19.88;;;;;;;4.77;96.84;101509.19;5091826;28;20055;-55
2020/12/16 02:31:21;;;;;;;129.40;25.77;;;;;;;4.77;96.70;101509.19;5091488;28;20054;-51
2020/12/16 02:34:03;;;;;;;94.30;23.35;;;;;;;4.76;96.76;101513.88;5091807;28;20055;-53
2020/12/16 02:36:33;;;;;;;100.57;24.63;;;;;;;4.75;96.73;101523.25;5091466;28;20044;-52
2020/12/16 02:39:16;;;;;;;121.53;25.88;;;;;;;4.72;96.61;101523.75;5091166;28;20052;-52
2020/12/16 02:42:02;;;;;;;123.65;26.95;;;;;;;4.70;97.07;101525.06;5091481;28;20536;-53
2020/12/16 02:44:29;;;;;;;88.72;24.60;;;;;;;4.66;96.90;101519.19;5108671;28;20048;-54
2020/12/16 02:47:20;;;;;;;102.28;24.52;;;;;;;4.66;97.17;101515.56;5111116;28;20465;-53
2020/12/16 02:49:48;;;;;;;96.45;24.23;;;;;;;4.67;97.05;101520.88;5111887;28;20044;-50
2020/12/16 02:52:15;;;;;;;89.35;21.02;;;;;;;4.68;97.23;101525.31;5095305;28;20060;-50
2020/12/16 02:54:42;;;;;;;131.25;24.17;;;;;;;4.72;97.36;101525.66;5111387;28;20048;-55
2020/12/16 02:57:38;;;;;;;107.38;22.90;;;;;;;4.74;97.23;101526.28;5094472;28;20109;-52
2020/12/16 03:00:07;;;;;;;88.97;21.42;;;;;;;4.79;97.52;101526.38;5111200;28;20471;-50
2020/12/16 03:02:57;;;;;;;116.20;25.08;;;;;;;4.80;97.63;101528.88;5093712;28;20525;-53
2020/12/16 03:05:51;;;;;;;103.63;23.42;;;;;;;4.85;97.73;101533.69;5108505;28;20117;-51
2020/12/16 03:08:30;;;;;;;104.97;23.95;;;;;;;4.90;97.59;101535.72;5094234;28;20047;-53
2020/12/16 03:11:02;;;;;;;88.13;22.75;;;;;;;4.94;97.74;101534.97;5091162;28;20523;-53
2020/12/16 03:13:30;;;;;;;115.47;25.60;;;;;;;4.99;97.68;101540.63;5094092;28;20044;-52
2020/12/16 03:16:00;;;;;;;91.78;22.27;;;;;;;5.02;97.79;101529.03;5111404;28;20344;-52
2020/12/16 03:18:28;;;;;;;121.15;25.95;;;;;;;5.06;97.40;101533.00;5093142;28;20059;-52
2020/12/16 03:21:02;;;;;;;115.28;24.70;;;;;;;5.09;97.45;101531.69;5110824;28;20051;-50
2020/12/16 03:23:29;;;;;;;136.57;25.90;;;;;;;5.14;97.70;101535.41;5093159;28;20052;-51
2020/12/16 03:26:20;;;;;;;124.65;25.48;;;;;;;5.19;97.67;101529.13;5073924;27;20512;-50
2020/12/16 03:29:12;;;;;;;;;;;;;;;5.18;98.06;101528.28;5090607;28;20056;-50
2020/12/16 03:31:59;;;;;;;156.25;26.58;;;;;;;5.21;98.03;101532.47;5093990;28;19928;-49
2020/12/16 03:34:46;;;;;;;155.10;27.77;;;;;;;5.29;98.33;101529.31;5090574;28;20123;-50
2020/12/16 03:37:18;;;;;;;145.88;26.13;;;;;;;5.35;97.81;101524.72;5093907;28;20056;-49
2020/12/16 03:39:46;;;;;;;129.07;26.08;;;;;;;5.37;98.09;101514.25;5092419;28;20495;-52
2020/12/16 03:42:16;;;;;;;178.95;26.75;;;;;;;5.40;98.02;101519.25;5091368;28;20048;-48
2020/12/16 03:44:45;;;;;;;139.90;24.33;;;;;;;5.43;98.05;101519.59;5090442;28;20086;-49
2020/12/16 03:47:11;;;;;;;207.07;30.20;;;;;;;5.46;98.08;101512.72;5090243;28;20060;-47
2020/12/16 03:49:39;;;;;;;200.18;29.58;;;;;;;5.50;98.00;101524.97;5092298;28;20035;-47
2020/12/16 03:52:06;;;;;;;149.32;26.50;;;;;;;5.50;98.21;101520.28;5110446;28;20052;-48
2020/12/16 03:55:05;;;;;;;122.47;25.98;;;;;;;5.48;98.13;101530.78;5097010;28;20087;-48
2020/12/16 03:57:49;;;;;;;142.52;27.73;;;;;;;5.51;98.05;101526.66;5109784;28;20138;-48
2020/12/16 04:00:37;;;;;;;187.85;28.42;;;;;;;5.53;98.42;101522.56;5069189;28;20048;-48
2020/12/16 04:03:07;;;;;;;197.73;29.25;;;;;;;5.57;98.22;101531.22;5110385;28;20056;-48
2020/12/16 04:05:55;;;;;;;146.00;28.67;;;;;;;5.60;98.42;101522.38;5111945;28;20089;-48
2020/12/16 04:08:22;;;;;;;188.32;30.40;;;;;;;5.62;98.30;101530.44;5110624;28;20047;-49
2020/12/16 04:11:13;;;;;;;206.65;30.63;;;;;;;5.61;98.01;101520.44;5111565;28;20152;-51
2020/12/16 04:13:43;;;;;;;111.93;23.90;;;;;;;5.61;98.04;101524.06;5108698;28;20055;-54
2020/12/16 04:16:13;;;;;;;182.30;30.63;;;;;;;5.62;97.78;101527.69;5091144;28;20304;-51
2020/12/16 04:18:42;;;;;;;148.23;27.48;;;;;;;5.60;97.92;101530.69;5093406;28;20112;-53
2020/12/16 04:21:09;;;;;;;174.10;27.30;;;;;;;5.58;98.02;101523.75;5092742;28;20048;-54
2020/12/16 04:23:38;;;;;;;133.55;26.50;;;;;;;5.57;98.09;101533.97;5091931;28;20047;-56
2020/12/16 04:26:24;;;;;;;100.50;24.70;;;;;;;5.56;97.82;101535.06;5092617;28;20487;-52
2020/12/16 04:28:54;;;;;;;154.38;25.17;;;;;;;5.57;98.00;101531.22;5092274;28;20076;-54
2020/12/16 04:31:22;;;;;;;180.07;29.95;;;;;;;5.55;97.86;101527.84;5111541;28;20097;-53
2020/12/16 04:33:49;;;;;;;134.63;26.02;;;;;;;5.53;98.17;101527.25;5110748;28;20098;-50
2020/12/16 04:36:16;;;;;;;158.40;26.52;;;;;;;5.52;98.38;101525.59;5090427;28;20050;-53
2020/12/16 04:38:46;;;;;;;150.15;27.65;;;;;;;5.51;98.37;101532.19;5090257;28;20067;-52
2020/12/16 04:41:13;;;;;;;132.40;25.33;;;;;;;5.50;98.20;101525.81;5091697;28;20044;-52
2020/12/16 04:43:45;;;;;;;84.47;21.37;;;;;;;5.46;98.22;101521.88;5111146;28;20074;-53
2020/12/16 04:46:18;;;;;;;134.47;23.70;;;;;;;5.44;98.42;101514.91;5092291;28;20048;-52
2020/12/16 04:48:46;;;;;;;147.73;25.98;;;;;;;5.44;98.34;101512.97;5110715;28;20489;-54
2020/12/16 04:51:25;;;;;;;131.02;24.15;;;;;;;5.43;98.30;101521.53;5092819;28;20048;-52
2020/12/16 04:53:54;;;;;;;174.25;27.60;;;;;;;5.43;98.10;101524.28;5110151;28;20054;-54
2020/12/16 04:56:30;;;;;;;115.30;23.90;;;;;;;5.37;98.10;101520.63;5093615;28;20124;-52
2020/12/16 04:59:11;;;;;;;108.13;22.88;;;;;;;5.37;98.20;101525.31;5091069;28;20042;-55
2020/12/16 05:01:53;;;;;;;138.63;24.75;;;;;;;5.33;98.43;101522.19;5091506;28;20474;-49
2020/12/16 05:04:24;;;;;;;172.45;25.60;;;;;;;5.31;98.35;101526.28;5110882;28;20047;-52
2020/12/16 05:06:54;;;;;;;125.10;23.17;;;;;;;5.27;98.51;101538.94;5092039;28;20044;-51
2020/12/16 05:09:21;;;;;;;191.77;25.33;;;;;;;5.23;98.40;101537.75;5112003;28;20046;-53
2020/12/16 05:11:49;;;;;;;178.52;26.20;;;;;;;5.22;98.31;101534.13;5111132;28;20051;-51
2020/12/16 05:14:18;;;;;;;146.27;23.33;;;;;;;5.18;98.39;101536.59;5111177;28;20052;-50
2020/12/16 05:16:55;;;;;;;164.07;23.92;;;;;;;5.18;98.42;101533.81;5111252;28;20524;-51
2020/12/16 05:19:35;;;;;;;150.52;24.08;;;;;;;5.17;98.24;101528.53;5111644;28;20541;-49
2020/12/16 05:22:20;;;;;;;141.18;25.10;;;;;;;5.13;98.49;101530.94;5096574;28;20131;-48
2020/12/16 05:24:49;;;;;;;152.98;25.65;;;;;;;5.10;98.52;101525.06;5091546;28;20138;-54
2020/12/16 05:27:21;;;;;;;137.25;24.60;;;;;;;5.08;98.99;101528.06;5090419;28;20044;-52
2020/12/16 05:29:53;;;;;;;150.18;25.35;;;;;;;5.12;98.94;101523.72;5091489;28;20088;-53
2020/12/16 05:32:26;;;;;;;178.68;26.83;;;;;;;5.12;98.83;101531.19;5090851;28;20127;-53
2020/12/16 05:34:56;;;;;;;138.45;25.20;;;;;;;5.14;99.40;101527.09;5090673;28;20182;-50
2020/12/16 05:37:25;;;;;;;176.77;26.90;;;;;;;5.13;99.44;101535.63;5091092;28;20148;-49
2020/12/16 05:39:56;;;;;;;175.93;26.80;;;;;;;5.14;99.15;101529.84;5091156;28;20455;-47
2020/12/16 05:42:24;;;;;;;160.60;26.98;;;;;;;5.17;99.21;101531.31;5094000;28;20422;-51
2020/12/16 05:44:51;;;;;;;145.93;24.27;;;;;;;5.17;99.21;101531.31;5094767;28;20058;-50
2020/12/16 05:47:18;;;;;;;190.05;28.80;;;;;;;5.18;99.39;101535.75;5094570;28;20044;-52
2020/12/16 05:49:45;;;;;;;206.77;30.13;;;;;;;5.19;99.25;101527.19;5094230;28;20054;-54
2020/12/16 05:52:12;;;;;;;162.10;27.48;;;;;;;5.22;99.54;101527.75;5094489;28;20406;-48
2020/12/16 05:54:39;;;;;;;185.23;29.02;;;;;;;5.24;99.24;101533.91;5094800;28;20043;-52
2020/12/16 05:57:12;;;;;;;206.80;28.83;;;;;;;5.26;99.37;101538.09;5094079;28;20050;-52
2020/12/16 05:59:39;;;;;;;;;;;;;;;5.23;99.26;101548.81;5094766;28;20142;-53
2020/12/16 06:02:07;;;;;;;166.95;25.35;;;;;;;5.23;99.45;101552.41;5094414;28;20018;-53
2020/12/16 06:04:36;;;;;;;210.90;29.10;;;;;;;5.30;99.71;101549.50;5093929;28;20040;-53
2020/12/16 06:07:03;;;;;;;192.50;28.08;;;;;;;5.33;99.88;101551.78;5094431;28;20044;-53
2020/12/16 06:09:32;;;;;;;185.85;28.58;;;;;;;5.38;99.82;101552.75;5093572;28;20463;-51
2020/12/16 06:12:05;;;;;;;163.45;27.65;;;;;;;5.40;99.32;101553.31;5094245;28;20135;-53
2020/12/16 06:14:34;;;;;;;179.02;27.55;;;;;;;5.38;99.61;101543.59;5114190;28;20449;-52
2020/12/16 06:17:11;;;;;;;130.82;22.40;;;;;;;5.42;99.40;101547.53;5114180;28;20135;-50
2020/12/16 06:19:43;;;;;;;197.18;27.63;;;;;;;5.42;99.70;101547.53;5094156;28;20581;-53
2020/12/16 06:22:11;;;;;;;197.63;27.60;;;;;;;5.40;99.97;101555.22;5094278;28;20563;-51
2020/12/16 06:24:43;;;;;;;250.40;30.05;;;;;;;5.44;99.79;101553.66;5093240;28;20044;-56
2020/12/16 06:27:11;;;;;;;237.65;30.30;;;;;;;5.47;99.49;101553.16;5094177;28;20064;-55
2020/12/16 06:29:42;;;;;;;176.48;26.52;;;;;;;5.49;99.78;101550.97;5093828;28;20130;-53
2020/12/16 06:32:19;;;;;;;199.68;28.70;;;;;;;5.52;99.80;101553.25;5092405;28;20054;-53
2020/12/16 06:34:46;;;;;;;147.13;27.33;;;;;;;5.53;99.99;101549.41;5110421;28;20047;-56
2020/12/16 06:37:15;;;;;;;222.98;30.42;;;;;;;5.58;99.82;101548.66;5114036;28;20121;-53
2020/12/16 06:39:42;;;;;;;257.02;29.90;;;;;;;5.59;99.87;101542.88;5113278;28;20126;-54
2020/12/16 06:42:09;;;;;;;238.88;30.85;;;;;;;5.62;99.76;101545.13;5114248;28;20040;-52
2020/12/16 06:44:36;;;;;;;275.67;32.47;;;;;;;5.64;99.78;101542.94;5099175;28;20078;-53
2020/12/16 06:47:03;;;;;;;282.52;31.20;;;;;;;5.67;99.90;101545.22;5110415;28;20271;-54
2020/12/16 06:49:34;;;;;;;254.63;30.75;;;;;;;5.67;99.88;101539.69;5113596;28;20039;-55
2020/12/16 06:52:04;;;;;;;328.40;33.88;;;;;;;5.70;100.00;101544.72;5112988;28;20147;-54
2020/12/16 06:54:53;;;;;;;278.25;30.45;;;;;;;5.72;99.70;101553.63;5113403;28;20046;-54
2020/12/16 06:57:22;;;;;;;281.25;31.75;;;;;;;5.67;100.00;101542.44;5113997;28;20051;-54
2020/12/16 06:59:51;;;;;;;255.60;27.38;;;;;;;5.72;99.70;101550.84;5112696;28;20092;-51
2020/12/16 07:02:24;;;;;;;250.00;27.92;;;;;;;5.66;100.00;101551.00;5113836;28;20097;-53
2020/12/16 07:04:51;;;;;;;274.70;27.33;;;;;;;5.65;100.00;101555.72;5106357;28;20417;-53
2020/12/16 07:07:54;;;;;;;251.25;26.55;;;;;;;5.55;99.88;101552.78;5113276;28;20056;-51
2020/12/16 07:10:46;;;;;;;156.75;19.83;;;;;;;5.51;100.00;101548.81;5113317;28;20040;-57
2020/12/16 07:13:24;;;;;;;212.23;22.75;;;;;;;5.49;100.00;101539.91;5112969;28;20051;-51
2020/12/16 07:16:12;;;;;;;217.73;23.92;;;;;;;5.56;100.00;101543.38;5112838;28;20045;-50
2020/12/16 07:18:49;;;;;;;220.20;27.58;;;;;;;5.52;100.00;101544.97;5108164;28;20116;-53
2020/12/16 07:21:22;;;;;;;230.43;27.48;;;;;;;5.55;100.00;101544.47;5112595;28;20043;-55
2020/12/16 07:23:52;;;;;;;225.18;28.55;;;;;;;5.54;100.00;101548.31;5092899;28;20078;-54
2020/12/16 07:26:25;;;;;;;221.23;26.70;;;;;;;5.52;100.00;101548.56;5108249;28;20636;-55
2020/12/16 07:28:52;;;;;;;236.68;26.50;;;;;;;5.52;100.00;101553.25;5112497;28;20134;-51
2020/12/16 07:31:19;;;;;;;213.70;26.50;;;;;;;5.52;100.00;101558.78;5112515;28;20109;-55
2020/12/16 07:33:46;;;;;;;145.10;21.92;;;;;;;5.49;100.00;101557.38;5113304;28;20048;-54
2020/12/16 07:36:15;;;;;;;170.73;24.48;;;;;;;5.51;100.00;101557.13;5112294;28;20054;-57
2020/12/16 07:38:48;;;;;;;188.90;24.88;;;;;;;5.55;100.00;101563.84;5113060;28;20470;-54
2020/12/16 07:41:23;;;;;;;183.27;23.58;;;;;;;5.57;100.00;101560.81;5112057;28;20138;-55
2020/12/16 07:43:50;;;;;;;133.05;21.30;;;;;;;5.57;100.00;101577.44;5112496;28;20051;-56
2020/12/16 07:46:23;;;;;;;162.63;22.10;;;;;;;5.57;100.00;101566.38;5102372;28;20044;-56
2020/12/16 07:48:51;;;;;;;179.82;23.20;;;;;;;5.56;100.00;101573.81;5092203;28;20234;-55
2020/12/16 07:51:19;;;;;;;162.48;23.17;;;;;;;5.56;100.00;101568.28;5092248;28;20051;-57
2020/12/16 07:53:47;;;;;;;151.82;22.88;;;;;;;5.58;100.00;101571.66;5102535;28;20130;-56
2020/12/16 07:56:15;;;;;;;137.90;22.88;;;;;;;5.58;100.00;101571.66;5105187;28;20042;-54
2020/12/16 07:58:43;;;;;;;154.32;21.63;;;;;;;5.60;100.00;101574.97;5092368;28;20105;-52
2020/12/16 08:01:11;;;;;;;183.18;23.60;;;;;;;5.63;100.00;101577.25;5092206;28;20078;-55
2020/12/16 08:03:40;;;;;;;159.55;23.05;;;;;;;5.60;100.00;101569.44;5090834;28;20052;-57
2020/12/16 08:06:07;;;;;;;179.07;24.98;;;;;;;5.64;100.00;101564.25;5093136;28;20056;-52
2020/12/16 08:08:43;;;;;;;162.35;24.50;;;;;;;5.64;100.00;101570.63;5112252;28;20119;-54
2020/12/16 08:11:15;;;;;;;136.50;22.63;;;;;;;5.66;100.00;101575.94;5111503;28;20048;-52
2020/12/16 08:13:43;;;;;;;123.88;22.45;;;;;;;5.67;100.00;101580.38;5112162;28;20051;-51
2020/12/16 08:16:10;;;;;;;103.78;21.45;;;;;;;5.68;100.00;101580.13;5111693;28;20138;-49
2020/12/16 08:18:42;;;;;;;101.90;22.50;;;;;;;5.71;100.00;101573.25;5111543;28;20039;-54
2020/12/16 08:21:16;;;;;;;99.47;24.13;;;;;;;5.72;100.00;101570.25;5112137;28;20135;-54
2020/12/16 08:23:43;;;;;;;101.25;22.27;;;;;;;5.76;100.00;101568.66;5110891;28;20075;-55
2020/12/16 08:26:10;;;;;;;104.18;24.38;;;;;;;5.79;100.00;101572.88;5112157;28;20414;-56
2020/12/16 08:28:37;;;;;;;112.35;25.70;;;;;;;5.81;100.00;101581.72;5111177;28;20079;-53
2020/12/16 08:31:05;;;;;;;107.07;24.27;;;;;;;5.83;100.00;101572.09;5111491;28;20142;-52
2020/12/16 08:33:33;;;;;;;81.78;23.77;;;;;;;5.85;100.00;101575.44;5111668;28;20126;-52
2020/12/16 08:36:04;;;;;;;74.85;21.98;;;;;;;5.89;100.00;101561.97;5091639;28;20075;-52
2020/12/16 08:38:33;;;;;;;72.95;23.63;;;;;;;5.92;100.00;101557.88;5104747;28;20379;-48
2020/12/16 08:41:02;;;;;;;66.97;20.80;;;;;;;5.96;100.00;101561.81;5111784;28;20054;-53
2020/12/16 08:43:30;;;;;;;69.57;23.52;;;;;;;5.96;100.00;101565.44;5111304;28;20047;-51
2020/12/16 08:46:04;;;;;;;60.35;21.10;;;;;;;5.97;100.00;101564.34;5111354;28;20134;-50
2020/12/16 08:48:44;;;;;;;64.45;22.25;;;;;;;5.98;100.00;101565.19;5111014;28;20047;-56
2020/12/16 08:51:15;;;;;;;51.03;18.95;;;;;;;6.00;100.00;101560.19;5111061;28;20139;-54
2020/12/16 08:53:43;;;;;;;52.00;19.85;;;;;;;5.98;100.00;101570.72;5111420;28;20096;-50
2020/12/16 08:56:21;;;;;;;50.83;21.35;;;;;;;6.01;100.00;101564.66;5111354;28;20083;-53
2020/12/16 08:58:58;;;;;;;55.13;22.05;;;;;;;6.02;100.00;101572.72;5110980;28;20039;-51
2020/12/16 09:01:25;;;;;;;59.53;22.50;;;;;;;6.04;100.00;101567.75;5111814;28;20089;-54
2020/12/16 09:03:53;;;;;;;54.22;21.88;;;;;;;6.09;100.00;101575.31;5111169;28;20409;-48
2020/12/16 09:06:20;;;;;;;56.72;22.75;;;;;;;6.05;100.00;101565.84;5111252;28;20048;-49
2020/12/16 09:08:48;;;;;;;47.42;20.60;;;;;;;6.02;100.00;101580.19;5111085;28;20050;-50
2020/12/16 09:11:17;;;;;;;48.45;21.15;;;;;;;6.05;100.00;101582.47;5111539;28;20051;-52
2020/12/16 09:13:44;;;;;;;53.22;22.63;;;;;;;6.04;100.00;101569.69;5110833;28;20047;-50
2020/12/16 09:16:19;;;;;;;45.53;20.10;;;;;;;6.05;100.00;101568.59;5113942;28;20051;-51
2020/12/16 09:18:46;;;;;;;46.42;20.95;;;;;;;6.04;100.00;101566.94;5115275;28;20100;-52
2020/12/16 09:21:14;;;;;;;37.33;18.25;;;;;;;6.00;100.00;101561.03;5114930;28;20050;-50
2020/12/16 09:23:42;;;;;;;37.35;19.15;;;;;;;6.04;100.00;101575.25;5114953;28;20075;-50
2020/12/16 09:26:09;;;;;;;51.88;21.65;;;;;;;6.05;100.00;101574.16;5115657;28;20075;-53
2020/12/16 09:28:37;;;;;;;60.17;21.65;;;;;;;6.09;100.00;101583.63;5114825;28;20059;-50
2020/12/16 09:31:15;;;;;;;71.60;21.52;;;;;;;6.06;100.00;101573.91;5094833;28;20044;-51
2020/12/16 09:33:43;;;;;;;55.45;20.25;;;;;;;6.05;100.00;101576.91;5095130;28;20151;-52
2020/12/16 09:36:09;;;;;;;58.92;20.35;;;;;;;6.03;100.00;101579.94;5094484;28;20131;-52
2020/12/16 09:38:37;;;;;;;46.53;19.27;;;;;;;6.01;100.00;101575.72;5095202;28;20495;-48
2020/12/16 09:41:04;;;;;;;46.00;20.10;;;;;;;6.00;99.95;101580.44;5094187;28;20423;-52
2020/12/16 09:43:41;;;;;;;39.17;18.75;;;;;;;6.02;100.00;101588.50;5094741;28;20503;-50
2020/12/16 09:46:17;;;;;;;44.60;20.67;;;;;;;5.99;100.00;101587.09;5094361;28;20495;-49
2020/12/16 09:48:45;;;;;;;43.38;18.20;;;;;;;6.03;100.00;101585.47;5114721;28;20078;-48
2020/12/16 09:51:14;;;;;;;53.90;20.48;;;;;;;6.03;100.00;101604.03;5098474;28;20325;-52
2020/12/16 09:53:42;;;;;;;40.85;19.73;;;;;;;5.99;100.00;101602.88;5094710;28;20040;-48
2020/12/16 09:56:22;;;;;;;53.65;20.50;;;;;;;5.98;100.00;101599.25;5093875;28;20123;-55
2020/12/16 09:58:49;;;;;;;43.80;17.75;;;;;;;5.98;100.00;101607.56;5094798;28;20074;-48
2020/12/16 10:01:16;;;;;;;38.10;18.42;;;;;;;6.01;99.90;101614.53;5094016;28;20054;-50
2020/12/16 10:03:42;;;;;;;42.95;18.65;;;;;;;5.99;99.96;101602.88;5094068;28;20052;-51
2020/12/16 10:06:13;;;;;;;46.00;19.67;;;;;;;6.00;100.00;101597.06;5094030;28;20522;-51
2020/12/16 10:08:40;;;;;;;42.85;19.65;;;;;;;6.04;100.00;101598.25;5094002;28;20154;-53
2020/12/16 10:11:11;;;;;;;41.50;19.10;;;;;;;6.07;100.00;101596.91;5094083;28;20372;-52
2020/12/16 10:13:38;;;;;;;43.78;19.65;;;;;;;6.09;100.00;101592.78;5094148;28;20131;-46
2020/12/16 10:16:05;;;;;;;43.25;20.42;;;;;;;6.10;100.00;101590.88;5093182;28;20055;-50
2020/12/16 10:18:31;;;;;;;43.63;19.15;;;;;;;6.11;100.00;101590.63;5104006;28;20048;-51
2020/12/16 10:20:58;;;;;;;41.95;20.10;;;;;;;6.14;100.00;101589.28;5108911;28;20039;-50
2020/12/16 10:23:25;;;;;;;39.63;20.17;;;;;;;6.12;100.00;101580.38;5093286;28;20077;-47
2020/12/16 10:25:53;;;;;;;37.25;19.00;;;;;;;6.14;100.00;101580.97;5093686;28;20503;-49
2020/12/16 10:28:32;;;;;;;41.30;19.83;;;;;;;6.15;100.00;101582.66;5093014;28;20052;-49
2020/12/16 10:30:59;;;;;;;36.88;18.65;;;;;;;6.15;100.00;101593.72;5093159;28;20051;-50
2020/12/16 10:33:26;;;;;;;40.63;18.90;;;;;;;6.18;100.00;101591.28;5093863;28;20044;-50
2020/12/16 10:35:53;;;;;;;44.22;21.02;;;;;;;6.20;99.99;101588.25;5093515;28;20060;-56
2020/12/16 10:38:20;;;;;;;39.40;20.70;;;;;;;6.22;100.00;101583.28;5113168;28;20061;-51
2020/12/16 10:40:47;;;;;;;40.42;20.25;;;;;;;6.23;100.00;101583.03;5114079;28;20126;-52
2020/12/16 10:43:14;;;;;;;38.60;19.63;;;;;;;6.28;99.84;101582.28;5113532;28;20054;-51
2020/12/16 10:45:41;;;;;;;34.88;18.38;;;;;;;6.31;99.76;101575.41;5113485;28;20126;-51
2020/12/16 10:48:08;;;;;;;37.92;19.13;;;;;;;6.33;99.88;101579.59;5113512;28;20126;-51
2020/12/16 10:50:35;;;;;;;41.55;19.20;;;;;;;6.35;99.87;101580.19;5113720;28;20557;-52
2020/12/16 10:53:02;;;;;;;38.13;19.25;;;;;;;6.36;99.82;101578.25;5099050;28;20131;-52
2020/12/16 10:55:28;;;;;;;35.15;19.10;;;;;;;6.39;100.00;101578.59;5093180;28;20047;-51
2020/12/16 10:57:56;;;;;;;39.22;20.38;;;;;;;6.43;99.93;101565.88;5092516;28;20506;-52
2020/12/16 11:00:23;;;;;;;33.35;18.35;;;;;;;6.48;99.78;101565.13;5093369;28;20130;-50
2020/12/16 11:02:50;;;;;;;35.33;19.20;;;;;;;6.52;99.84;101561.59;5093201;28;20044;-51
2020/12/16 11:05:16;;;;;;;35.90;18.77;;;;;;;6.60;99.85;101570.56;5092566;28;20072;-49
2020/12/16 11:07:43;;;;;;;32.97;16.77;;;;;;;6.65;99.83;101565.09;5092874;28;20048;-52
2020/12/16 11:10:10;;;;;;;38.55;20.02;;;;;;;6.74;99.77;101563.56;5092876;28;20048;-49
2020/12/16 11:12:36;;;;;;;36.95;19.90;;;;;;;6.79;100.00;101558.09;5092282;28;20036;-50
2020/12/16 11:15:04;;;;;;;38.40;20.17;;;;;;;6.80;99.98;101554.19;5092801;28;20044;-52
2020/12/16 11:17:31;;;;;;;36.28;19.73;;;;;;;6.80;99.37;101545.88;5092706;28;20043;-53
2020/12/16 11:19:58;;;;;;;31.98;18.17;;;;;;;6.82;99.10;101550.06;5092347;28;20040;-53
2020/12/16 11:22:25;;;;;;;39.53;21.05;;;;;;;6.92;99.27;101549.38;5092882;28;20047;-51
2020/12/16 11:24:52;;;;;;;29.15;17.15;;;;;;;7.01;99.70;101550.59;5112830;28;20377;-52
2020/12/16 11:27:18;;;;;;;36.55;19.45;;;;;;;7.02;99.15;101555.03;5112838;28;20055;-52
2020/12/16 11:29:49;;;;;;;32.15;18.40;;;;;;;7.13;98.94;101553.25;5112627;28;20066;-49